Time;durP1;ratioP1;P1;durP2;ratioP2;P2;SDS_P1;SDS_P2;PMS_P1;PMS_P2;Temp;Humidity;BMP_temperature;BMP_pressure;BME280_temperature;BME280_humidity;BME280_pressure;Samples;Min_cycle;Max_cycle;Signal;HPM_P1;HPM_P2
2023/02/06 00:01:24;;;;;;;59.30;29.83;;;;;;;;;;5067867;28;20413;-68
2023/02/06 00:03:52;;;;;;;54.85;29.33;;;;;;;;;;5061957;28;20393;-68
2023/02/06 00:06:19;;;;;;;59.55;30.50;;;;;;;;;;5069680;28;20032;-68
2023/02/06 00:08:47;;;;;;;55.20;28.02;;;;;;;;;;5068994;28;20020;-69
2023/02/06 00:11:15;;;;;;;53.28;29.52;;;;;;;;;;5049787;28;20024;-68
2023/02/06 00:13:43;;;;;;;58.72;31.48;;;;;;;;;;5068650;28;20401;-68
2023/02/06 00:16:17;;;;;;;56.17;30.27;;;;;;;;;;5069025;28;20017;-68
2023/02/06 00:18:44;;;;;;;60.88;29.98;;;;;;;;;;5056401;28;20044;-68
2023/02/06 00:21:11;;;;;;;61.40;31.48;;;;;;;;;;5064672;28;20016;-68
2023/02/06 00:23:38;;;;;;;62.55;31.23;;;;;;;;;;5070026;28;20025;-68
2023/02/06 00:26:06;;;;;;;61.00;32.17;;;;;;;;;;5067691;28;20044;-68
2023/02/06 00:28:33;;;;;;;61.88;30.70;;;;;;;;;;5081353;28;20020;-69
2023/02/06 00:31:02;;;;;;;67.35;33.67;;;;;;;;;;5078042;28;20077;-69
2023/02/06 00:33:31;;;;;;;66.15;31.90;;;;;;;;;;5073701;28;20028;-68
2023/02/06 00:35:59;;;;;;;67.28;32.53;;;;;;;;;;5078949;28;20373;-68
2023/02/06 00:38:27;;;;;;;64.60;33.33;;;;;;;;;;5077891;28;20017;-68
2023/02/06 00:40:54;;;;;;;67.60;33.17;;;;;;;;;;5079418;28;20023;-68
2023/02/06 00:43:23;;;;;;;69.95;35.13;;;;;;;;;;5079946;28;20511;-68
2023/02/06 00:45:54;;;;;;;63.65;32.40;;;;;;;;;;5074923;28;20024;-68
2023/02/06 00:48:21;;;;;;;60.50;31.88;;;;;;;;;;5078925;28;20024;-68
2023/02/06 00:50:49;;;;;;;62.30;31.00;;;;;;;;;;5080799;28;20016;-68
2023/02/06 00:53:16;;;;;;;65.20;31.67;;;;;;;;;;5077917;28;20073;-68
2023/02/06 00:55:45;;;;;;;66.40;34.15;;;;;;;;;;5079881;28;20036;-68
2023/02/06 00:58:12;;;;;;;61.75;31.73;;;;;;;;;;5078112;28;20066;-68
2023/02/06 01:00:39;;;;;;;66.80;32.55;;;;;;;;;;5077435;28;20035;-68
2023/02/06 01:03:06;;;;;;;67.32;33.15;;;;;;;;;;5082576;28;20024;-68
2023/02/06 01:05:34;;;;;;;72.47;35.80;;;;;;;;;;5079931;28;20070;-68
2023/02/06 01:08:01;;;;;;;70.65;35.08;;;;;;;;;;5079660;28;20020;-68
2023/02/06 01:10:28;;;;;;;74.57;36.90;;;;;;;;;;5077588;28;20117;-69
2023/02/06 01:12:55;;;;;;;72.68;35.03;;;;;;;;;;5076610;28;20016;-68
2023/02/06 01:15:22;;;;;;;65.78;32.88;;;;;;;;;;5078679;28;20013;-68
2023/02/06 01:17:49;;;;;;;70.47;33.15;;;;;;;;;;5079427;28;20081;-68
2023/02/06 01:20:17;;;;;;;67.70;33.88;;;;;;;;;;5076557;28;20028;-68
2023/02/06 01:22:44;;;;;;;67.57;33.17;;;;;;;;;;5079646;28;20038;-68
2023/02/06 01:25:11;;;;;;;63.33;32.22;;;;;;;;;;5075894;28;20079;-68
2023/02/06 01:27:38;;;;;;;65.68;33.30;;;;;;;;;;5069829;28;20040;-68
2023/02/06 01:30:07;;;;;;;67.10;32.20;;;;;;;;;;5060938;28;20044;-68
2023/02/06 01:32:37;;;;;;;69.72;33.42;;;;;;;;;;5071357;28;20034;-68
2023/02/06 01:35:04;;;;;;;67.78;33.22;;;;;;;;;;5073088;28;20074;-68
2023/02/06 01:37:31;;;;;;;64.47;32.53;;;;;;;;;;5073309;28;20058;-68
2023/02/06 01:39:58;;;;;;;68.40;33.55;;;;;;;;;;5072608;28;20032;-68
2023/02/06 01:42:25;;;;;;;64.57;32.00;;;;;;;;;;5073513;28;20021;-68
2023/02/06 01:45:11;;;;;;;75.75;34.88;;;;;;;;;;5066781;28;20090;-68
2023/02/06 01:47:38;;;;;;;71.97;33.65;;;;;;;;;;5069136;28;20040;-68
2023/02/06 01:50:06;;;;;;;73.60;36.15;;;;;;;;;;5066253;28;20106;-68
2023/02/06 01:52:33;;;;;;;63.90;31.77;;;;;;;;;;5069288;28;20086;-68
2023/02/06 01:55:02;;;;;;;73.80;35.60;;;;;;;;;;5072800;28;20021;-68
2023/02/06 01:57:29;;;;;;;72.80;33.92;;;;;;;;;;5072519;28;20037;-68
2023/02/06 02:00:00;;;;;;;72.35;35.00;;;;;;;;;;5072991;28;20431;-69
2023/02/06 02:02:28;;;;;;;68.35;35.05;;;;;;;;;;5065422;28;20078;-68
2023/02/06 02:04:56;;;;;;;74.43;35.45;;;;;;;;;;5063619;28;20029;-68
2023/02/06 02:07:25;;;;;;;74.95;36.20;;;;;;;;;;5070267;28;20090;-68
2023/02/06 02:09:53;;;;;;;68.38;33.95;;;;;;;;;;5073155;28;20059;-69
2023/02/06 02:12:20;;;;;;;72.78;35.08;;;;;;;;;;5071894;28;20031;-68
2023/02/06 02:14:48;;;;;;;80.50;35.78;;;;;;;;;;5064219;28;20029;-68
2023/02/06 02:17:34;;;;;;;76.00;35.55;;;;;;;;;;5067380;28;20104;-68
2023/02/06 02:20:16;;;;;;;78.70;36.80;;;;;;;;;;5060438;28;20448;-68
2023/02/06 02:22:48;;;;;;;77.15;36.03;;;;;;;;;;5082509;28;20026;-68
2023/02/06 02:25:31;;;;;;;65.05;33.55;;;;;;;;;;5063832;28;20024;-69
2023/02/06 02:28:17;;;;;;;69.40;34.53;;;;;;;;;;5072255;28;20052;-68
2023/02/06 02:30:59;;;;;;;77.47;35.10;;;;;;;;;;5072591;28;20416;-68
2023/02/06 02:33:32;;;;;;;70.65;35.42;;;;;;;;;;5060093;28;20016;-69
2023/02/06 02:36:05;;;;;;;75.20;35.95;;;;;;;;;;5067388;28;20025;-68
2023/02/06 02:38:36;;;;;;;83.88;36.90;;;;;;;;;;5067905;28;20063;-68
2023/02/06 02:41:09;;;;;;;75.57;34.83;;;;;;;;;;5072025;28;20020;-68
2023/02/06 02:43:43;;;;;;;78.47;38.47;;;;;;;;;;5071774;28;20032;-68
2023/02/06 02:46:25;;;;;;;79.85;36.22;;;;;;;;;;5062430;28;20545;-68
2023/02/06 02:48:53;;;;;;;72.13;35.50;;;;;;;;;;5071721;28;20074;-68
2023/02/06 02:51:20;;;;;;;70.93;36.13;;;;;;;;;;5058867;28;20048;-68
2023/02/06 02:53:48;;;;;;;71.50;36.70;;;;;;;;;;5071981;28;20420;-68
2023/02/06 02:56:19;;;;;;;69.78;34.63;;;;;;;;;;5071596;28;20028;-68
2023/02/06 02:58:47;;;;;;;82.32;37.42;;;;;;;;;;5071571;28;20123;-68
2023/02/06 03:01:17;;;;;;;78.38;36.63;;;;;;;;;;5070298;28;20380;-68
2023/02/06 03:03:46;;;;;;;72.25;35.75;;;;;;;;;;5071798;28;20021;-68
2023/02/06 03:06:27;;;;;;;74.38;36.25;;;;;;;;;;5070971;28;20028;-68
2023/02/06 03:09:12;;;;;;;71.30;34.33;;;;;;;;;;5059380;28;20409;-68
2023/02/06 03:11:42;;;;;;;70.03;35.45;;;;;;;;;;5065041;28;20024;-68
2023/02/06 03:14:12;;;;;;;71.45;35.35;;;;;;;;;;5068799;28;20082;-68
2023/02/06 03:16:46;;;;;;;71.03;36.00;;;;;;;;;;5069011;28;20074;-68
2023/02/06 03:19:13;;;;;;;77.03;37.25;;;;;;;;;;5059415;28;20086;-68
2023/02/06 03:21:41;;;;;;;69.30;35.78;;;;;;;;;;5070522;28;20481;-68
2023/02/06 03:24:14;;;;;;;69.20;35.25;;;;;;;;;;5070748;28;20033;-68
2023/02/06 03:26:42;;;;;;;74.35;36.47;;;;;;;;;;5080396;28;20086;-68
2023/02/06 03:29:12;;;;;;;69.82;35.53;;;;;;;;;;5082589;28;20044;-68
2023/02/06 03:31:42;;;;;;;73.10;36.83;;;;;;;;;;5091753;28;20370;-68
2023/02/06 03:34:20;;;;;;;70.50;35.78;;;;;;;;;;5090008;28;20028;-68
2023/02/06 03:36:49;;;;;;;69.60;36.33;;;;;;;;;;5091849;28;20024;-68
2023/02/06 03:39:16;;;;;;;72.72;36.88;;;;;;;;;;5090437;28;20027;-68
2023/02/06 03:41:46;;;;;;;68.95;35.25;;;;;;;;;;5091770;28;20423;-68
2023/02/06 03:44:17;;;;;;;73.23;37.57;;;;;;;;;;5086223;28;20516;-68
2023/02/06 03:46:46;;;;;;;73.22;35.83;;;;;;;;;;5089098;28;20062;-68
2023/02/06 03:49:15;;;;;;;69.88;35.53;;;;;;;;;;5085327;28;20078;-68
2023/02/06 03:51:54;;;;;;;73.63;36.33;;;;;;;;;;5091544;28;20028;-68
2023/02/06 03:54:24;;;;;;;67.93;35.93;;;;;;;;;;5090267;28;20082;-68
2023/02/06 03:56:55;;;;;;;72.75;36.38;;;;;;;;;;5089263;28;20254;-68
2023/02/06 03:59:23;;;;;;;69.60;33.60;;;;;;;;;;5078372;28;20061;-69
2023/02/06 04:01:53;;;;;;;68.88;34.72;;;;;;;;;;5091566;28;20074;-68
2023/02/06 04:04:27;;;;;;;67.80;34.53;;;;;;;;;;5089293;28;20032;-66
2023/02/06 04:06:55;;;;;;;67.90;35.33;;;;;;;;;;5090977;28;20431;-67
2023/02/06 04:09:22;;;;;;;70.05;35.00;;;;;;;;;;5071966;28;20024;-66
2023/02/06 04:11:49;;;;;;;65.82;33.83;;;;;;;;;;5091344;28;20020;-66
2023/02/06 04:14:17;;;;;;;67.13;33.45;;;;;;;;;;5090262;28;20020;-66
2023/02/06 04:16:44;;;;;;;66.97;34.67;;;;;;;;;;5090461;28;20036;-66
2023/02/06 04:19:11;;;;;;;64.10;34.40;;;;;;;;;;5089959;28;20032;-66
2023/02/06 04:21:38;;;;;;;66.32;34.70;;;;;;;;;;5079074;28;20564;-66
2023/02/06 04:24:07;;;;;;;65.57;35.05;;;;;;;;;;5080916;28;20077;-67
2023/02/06 04:26:34;;;;;;;65.70;33.50;;;;;;;;;;5090578;28;20043;-66
2023/02/06 04:29:03;;;;;;;65.95;35.65;;;;;;;;;;5090614;28;20028;-66
2023/02/06 04:31:30;;;;;;;71.45;34.60;;;;;;;;;;5087861;28;20032;-67
2023/02/06 04:33:57;;;;;;;64.65;35.28;;;;;;;;;;5090919;28;20028;-66
2023/02/06 04:36:26;;;;;;;60.95;34.28;;;;;;;;;;5090328;28;20027;-66
2023/02/06 04:38:54;;;;;;;62.55;35.60;;;;;;;;;;5090557;28;20077;-66
2023/02/06 04:41:21;;;;;;;63.95;35.70;;;;;;;;;;5089989;28;20024;-66
2023/02/06 04:43:49;;;;;;;64.20;33.65;;;;;;;;;;5090733;28;20016;-66
2023/02/06 04:46:16;;;;;;;67.70;35.40;;;;;;;;;;5080095;28;20089;-67
2023/02/06 04:48:43;;;;;;;61.88;35.42;;;;;;;;;;5082272;28;20032;-67
2023/02/06 04:51:10;;;;;;;68.53;36.60;;;;;;;;;;5090254;28;20361;-67
2023/02/06 04:53:37;;;;;;;64.50;35.47;;;;;;;;;;5088758;28;20074;-66
2023/02/06 04:56:05;;;;;;;65.32;35.53;;;;;;;;;;5063241;28;20032;-68
2023/02/06 04:58:33;;;;;;;66.57;36.47;;;;;;;;;;5081702;28;20077;-67
2023/02/06 05:01:00;;;;;;;63.05;35.30;;;;;;;;;;5088254;28;20379;-67
2023/02/06 05:03:28;;;;;;;66.43;35.70;;;;;;;;;;5080923;28;20732;-68
2023/02/06 05:05:56;;;;;;;67.35;35.72;;;;;;;;;;5092609;28;20089;-68
2023/02/06 05:08:23;;;;;;;63.75;35.92;;;;;;;;;;5092411;28;20530;-67
2023/02/06 05:10:51;;;;;;;61.20;36.25;;;;;;;;;;5094671;28;20469;-67
2023/02/06 05:13:20;;;;;;;62.95;34.90;;;;;;;;;;5093635;28;20051;-67
2023/02/06 05:15:47;;;;;;;62.55;36.35;;;;;;;;;;5085130;28;21487;-67
2023/02/06 05:18:15;;;;;;;61.80;34.15;;;;;;;;;;5093125;28;20032;-67
2023/02/06 05:20:42;;;;;;;62.47;34.90;;;;;;;;;;5090622;28;20024;-66
2023/02/06 05:23:09;;;;;;;58.63;33.13;;;;;;;;;;5091642;28;20028;-67
2023/02/06 05:25:37;;;;;;;68.07;35.20;;;;;;;;;;5089602;28;20024;-67
2023/02/06 05:28:06;;;;;;;61.58;35.20;;;;;;;;;;5054469;28;20440;-67
2023/02/06 05:30:37;;;;;;;62.38;36.42;;;;;;;;;;5072345;28;20016;-67
2023/02/06 05:33:06;;;;;;;59.33;35.88;;;;;;;;;;5059479;28;20043;-67
2023/02/06 05:35:33;;;;;;;67.57;36.10;;;;;;;;;;5071763;28;20066;-68
2023/02/06 05:38:00;;;;;;;59.25;35.15;;;;;;;;;;5072428;28;20040;-67
2023/02/06 05:40:29;;;;;;;56.65;33.13;;;;;;;;;;5069752;28;20021;-66
2023/02/06 05:42:57;;;;;;;57.23;33.20;;;;;;;;;;5070394;28;20462;-67
2023/02/06 05:45:26;;;;;;;60.38;34.05;;;;;;;;;;5071122;28;20622;-67
2023/02/06 05:47:54;;;;;;;59.42;33.08;;;;;;;;;;5072462;28;20013;-67
2023/02/06 05:50:23;;;;;;;59.08;33.72;;;;;;;;;;5060839;28;20078;-68
2023/02/06 05:52:52;;;;;;;58.85;32.17;;;;;;;;;;5072607;28;20359;-68
2023/02/06 05:55:21;;;;;;;57.30;32.47;;;;;;;;;;5069358;28;20021;-68
2023/02/06 05:57:49;;;;;;;57.75;32.55;;;;;;;;;;5071696;28;20020;-67
2023/02/06 06:00:17;;;;;;;56.53;34.03;;;;;;;;;;5071728;28;20016;-68
2023/02/06 06:02:45;;;;;;;58.05;34.88;;;;;;;;;;5071565;28;20021;-67
2023/02/06 06:05:12;;;;;;;59.40;35.03;;;;;;;;;;5070260;28;20070;-67
2023/02/06 06:07:40;;;;;;;60.45;34.60;;;;;;;;;;5069993;28;20016;-67
2023/02/06 06:10:06;;;;;;;56.22;34.80;;;;;;;;;;5069234;28;20401;-67
2023/02/06 06:12:34;;;;;;;57.38;33.25;;;;;;;;;;5065184;28;20513;-68
2023/02/06 06:15:03;;;;;;;55.08;33.75;;;;;;;;;;5072439;28;20103;-68
2023/02/06 06:17:31;;;;;;;61.00;33.67;;;;;;;;;;5072455;28;20039;-68
2023/02/06 06:20:02;;;;;;;53.40;32.78;;;;;;;;;;5072343;28;20325;-68
2023/02/06 06:22:30;;;;;;;55.65;32.30;;;;;;;;;;5077733;28;20024;-68
2023/02/06 06:24:59;;;;;;;56.38;33.42;;;;;;;;;;5066384;28;20120;-68
2023/02/06 06:27:27;;;;;;;53.75;32.13;;;;;;;;;;5065126;28;20666;-67
2023/02/06 06:29:55;;;;;;;53.15;31.65;;;;;;;;;;5072095;28;20138;-67
2023/02/06 06:32:23;;;;;;;54.67;33.22;;;;;;;;;;5070320;28;20091;-66
2023/02/06 06:34:51;;;;;;;50.42;31.42;;;;;;;;;;5071856;28;20429;-68
2023/02/06 06:37:18;;;;;;;49.47;29.42;;;;;;;;;;5070243;28;20103;-67
2023/02/06 06:39:46;;;;;;;46.08;29.98;;;;;;;;;;5072142;28;20032;-69
2023/02/06 06:42:14;;;;;;;46.10;28.00;;;;;;;;;;5071973;28;20104;-66
2023/02/06 06:44:42;;;;;;;49.80;29.73;;;;;;;;;;5069225;28;20021;-66
2023/02/06 06:47:10;;;;;;;46.88;29.33;;;;;;;;;;5066466;28;20484;-67
2023/02/06 06:49:39;;;;;;;41.15;26.70;;;;;;;;;;5070304;28;20108;-71
2023/02/06 06:52:08;;;;;;;42.47;27.17;;;;;;;;;;5065294;28;20436;-73
2023/02/06 06:54:37;;;;;;;43.80;27.20;;;;;;;;;;5067192;28;20044;-68
2023/02/06 06:57:07;;;;;;;48.23;28.33;;;;;;;;;;5072206;28;20251;-68
2023/02/06 06:59:37;;;;;;;43.78;26.98;;;;;;;;;;5060476;28;20782;-68
2023/02/06 07:02:06;;;;;;;46.83;27.90;;;;;;;;;;5070905;28;20517;-67
2023/02/06 07:04:35;;;;;;;44.95;27.48;;;;;;;;;;5071352;28;20078;-68
2023/02/06 07:07:02;;;;;;;44.08;28.30;;;;;;;;;;5071185;28;20063;-66
2023/02/06 07:09:32;;;;;;;44.05;26.95;;;;;;;;;;5058043;28;20056;-66
2023/02/06 07:12:01;;;;;;;45.08;27.33;;;;;;;;;;5068460;28;20037;-66
2023/02/06 07:14:31;;;;;;;43.58;28.38;;;;;;;;;;5070699;28;20092;-66
2023/02/06 07:17:00;;;;;;;50.40;28.93;;;;;;;;;;5066906;28;20363;-67
2023/02/06 07:19:29;;;;;;;48.60;29.05;;;;;;;;;;5067787;28;20335;-67
2023/02/06 07:21:59;;;;;;;46.50;27.20;;;;;;;;;;5071745;28;20036;-66
2023/02/06 07:24:28;;;;;;;42.17;25.05;;;;;;;;;;5068537;28;20081;-66
2023/02/06 07:26:57;;;;;;;43.27;25.70;;;;;;;;;;5081275;28;20554;-66
2023/02/06 07:29:27;;;;;;;44.05;25.75;;;;;;;;;;5100182;28;20290;-66
2023/02/06 07:31:58;;;;;;;47.05;27.10;;;;;;;;;;5092434;28;20016;-66
2023/02/06 07:34:27;;;;;;;43.63;25.65;;;;;;;;;;5090580;28;20078;-66
2023/02/06 07:36:58;;;;;;;43.95;25.85;;;;;;;;;;5091870;28;20431;-67
2023/02/06 07:39:28;;;;;;;37.22;23.83;;;;;;;;;;5090515;28;20077;-66
2023/02/06 07:41:57;;;;;;;40.30;24.40;;;;;;;;;;5090959;28;20370;-66
2023/02/06 07:44:26;;;;;;;40.70;23.95;;;;;;;;;;5090263;28;20028;-66
2023/02/06 07:46:56;;;;;;;35.73;23.10;;;;;;;;;;5091910;28;20020;-66
2023/02/06 07:49:25;;;;;;;36.63;23.42;;;;;;;;;;5090131;28;20738;-66
2023/02/06 07:51:55;;;;;;;35.88;22.15;;;;;;;;;;5088691;28;20032;-66
2023/02/06 07:54:24;;;;;;;39.33;23.90;;;;;;;;;;5090187;28;20028;-66
2023/02/06 07:56:53;;;;;;;34.70;21.88;;;;;;;;;;5091179;28;20074;-66
2023/02/06 07:59:22;;;;;;;36.07;21.77;;;;;;;;;;5089913;28;20028;-66
2023/02/06 08:01:52;;;;;;;38.87;21.97;;;;;;;;;;5091310;28;20336;-66
2023/02/06 08:04:21;;;;;;;36.60;22.42;;;;;;;;;;5088834;28;20307;-66
2023/02/06 08:06:50;;;;;;;38.15;21.30;;;;;;;;;;5092174;28;20020;-66
2023/02/06 08:09:19;;;;;;;36.17;22.13;;;;;;;;;;5089714;28;20436;-66
2023/02/06 08:11:49;;;;;;;34.05;21.60;;;;;;;;;;5090957;28;20032;-66
2023/02/06 08:14:18;;;;;;;35.25;21.63;;;;;;;;;;5090004;28;20073;-66
2023/02/06 08:16:47;;;;;;;35.10;19.80;;;;;;;;;;5091526;28;20036;-66
2023/02/06 08:19:17;;;;;;;33.00;18.88;;;;;;;;;;5089615;28;20300;-66
2023/02/06 08:21:46;;;;;;;32.45;19.15;;;;;;;;;;5092973;28;20028;-66
2023/02/06 08:24:16;;;;;;;37.45;18.83;;;;;;;;;;5091815;28;20512;-66
2023/02/06 08:26:45;;;;;;;28.15;17.95;;;;;;;;;;5084315;28;20059;-66
2023/02/06 08:29:15;;;;;;;31.47;18.83;;;;;;;;;;5093395;28;20090;-66
2023/02/06 08:31:45;;;;;;;28.92;18.88;;;;;;;;;;5090609;28;20250;-66
2023/02/06 08:34:14;;;;;;;;;;;;;;;;;;5089804;28;20023;-66
2023/02/06 08:36:43;;;;;;;28.70;16.40;;;;;;;;;;5090591;28;20423;-66
2023/02/06 08:39:16;;;;;;;30.10;17.08;;;;;;;;;;5090613;28;20021;-66
2023/02/06 08:41:46;;;;;;;24.23;15.15;;;;;;;;;;5094839;28;20035;-66
2023/02/06 08:44:16;;;;;;;26.25;15.95;;;;;;;;;;5087521;28;20050;-66
2023/02/06 08:46:46;;;;;;;26.88;15.10;;;;;;;;;;5094707;28;20024;-65
2023/02/06 08:49:17;;;;;;;27.00;15.50;;;;;;;;;;5093915;28;20108;-66
2023/02/06 08:51:49;;;;;;;25.67;14.40;;;;;;;;;;5094677;28;20028;-66
2023/02/06 08:54:19;;;;;;;26.23;13.82;;;;;;;;;;5093706;28;20035;-66
2023/02/06 08:56:48;;;;;;;21.83;13.32;;;;;;;;;;5076827;28;20054;-66
2023/02/06 08:59:18;;;;;;;24.85;13.77;;;;;;;;;;5089480;28;20028;-66
2023/02/06 09:01:48;;;;;;;;;;;;;;;;;;5095246;28;20028;-66
2023/02/06 09:04:18;;;;;;;22.88;13.07;;;;;;;;;;5093546;28;19957;-66
2023/02/06 09:06:48;;;;;;;16.20;10.48;;;;;;;;;;5094757;28;20031;-66
2023/02/06 09:09:17;;;;;;;;;;;;;;;;;;5094038;28;20032;-66
2023/02/06 09:11:47;;;;;;;22.40;10.95;;;;;;;;;;5094481;28;19915;-66
2023/02/06 09:14:18;;;;;;;20.23;10.85;;;;;;;;;;5093419;28;20093;-66
2023/02/06 09:16:47;;;;;;;18.67;11.23;;;;;;;;;;5100286;28;20081;-66
2023/02/06 09:19:16;;;;;;;17.83;12.03;;;;;;;;;;5093372;28;20456;-66
2023/02/06 09:21:45;;;;;;;17.53;10.63;;;;;;;;;;5094616;28;20254;-66
2023/02/06 09:24:14;;;;;;;20.48;11.30;;;;;;;;;;5086721;28;20085;-66
2023/02/06 09:26:45;;;;;;;21.83;12.30;;;;;;;;;;5093907;28;20048;-66
2023/02/06 09:29:14;;;;;;;17.02;10.63;;;;;;;;;;5092834;28;20028;-66
2023/02/06 09:31:44;;;;;;;22.35;11.93;;;;;;;;;;5093831;28;20101;-66
2023/02/06 09:34:13;;;;;;;;;;;;;;;;;;5082666;28;20077;-66
2023/02/06 09:36:43;;;;;;;16.70;10.55;;;;;;;;;;5093829;28;20434;-66
2023/02/06 09:39:13;;;;;;;15.15;10.27;;;;;;;;;;5093078;28;20031;-66
2023/02/06 09:41:51;;;;;;;18.95;11.23;;;;;;;;;;5075528;28;20024;-66
2023/02/06 09:44:38;;;;;;;22.55;10.93;;;;;;;;;;5094644;28;20040;-66
2023/02/06 09:47:16;;;;;;;16.23;10.77;;;;;;;;;;5095437;28;20036;-66
2023/02/06 09:49:47;;;;;;;17.60;9.48;;;;;;;;;;5097041;28;20016;-66
2023/02/06 09:52:16;;;;;;;21.48;10.25;;;;;;;;;;5091444;28;20065;-66
2023/02/06 09:54:55;;;;;;;15.48;10.52;;;;;;;;;;5093361;28;20028;-66
2023/02/06 09:57:41;;;;;;;20.27;10.20;;;;;;;;;;5093095;28;20032;-66
2023/02/06 10:00:33;;;;;;;20.55;11.35;;;;;;;;;;5074754;28;20354;-66
2023/02/06 10:03:06;;;;;;;18.20;10.75;;;;;;;;;;5086416;28;20389;-66
2023/02/06 10:05:54;;;;;;;14.45;7.50;;;;;;;;;;5093127;28;20074;-66
2023/02/06 10:08:33;;;;;;;17.20;8.45;;;;;;;;;;5082278;28;20024;-66
2023/02/06 10:11:04;;;;;;;13.68;7.10;;;;;;;;;;5093108;28;20085;-66
2023/02/06 10:13:49;;;;;;;13.52;7.45;;;;;;;;;;5073946;28;20024;-66
2023/02/06 10:16:27;;;;;;;15.68;8.18;;;;;;;;;;5093304;28;20536;-66
2023/02/06 10:18:59;;;;;;;12.32;7.00;;;;;;;;;;5070480;28;20039;-67
2023/02/06 10:21:36;;;;;;;14.50;7.90;;;;;;;;;;5092229;28;20046;-67
2023/02/06 10:24:23;;;;;;;16.48;9.05;;;;;;;;;;5089510;28;20040;-67
2023/02/06 10:26:54;;;;;;;16.75;9.52;;;;;;;;;;5092864;28;20067;-66
2023/02/06 10:29:26;;;;;;;14.40;7.93;;;;;;;;;;5091443;28;20035;-66
2023/02/06 10:32:07;;;;;;;13.52;7.63;;;;;;;;;;5101008;28;20112;-66
2023/02/06 10:34:46;;;;;;;13.45;7.25;;;;;;;;;;5093258;28;20084;-66
2023/02/06 10:37:21;;;;;;;13.43;7.40;;;;;;;;;;5091916;28;20039;-66
2023/02/06 10:40:17;;;;;;;20.58;12.27;;;;;;;;;;5094814;28;20419;-66
2023/02/06 10:42:51;;;;;;;11.52;8.27;;;;;;;;;;5083908;28;20304;-67
2023/02/06 10:45:39;;;;;;;13.43;7.03;;;;;;;;;;5099082;28;20036;-66
2023/02/06 10:48:28;;;;;;;12.75;6.15;;;;;;;;;;5094641;28;20480;-67
2023/02/06 10:51:01;;;;;;;7.82;4.90;;;;;;;;;;5093546;28;20103;-66
2023/02/06 10:53:33;;;;;;;11.85;3.65;;;;;;;;;;5091879;28;20028;-66
2023/02/06 10:56:04;;;;;;;6.00;3.67;;;;;;;;;;5092642;28;20112;-66
2023/02/06 10:58:36;;;;;;;6.47;3.70;;;;;;;;;;5078971;28;20024;-66
2023/02/06 11:01:07;;;;;;;6.80;4.30;;;;;;;;;;5086117;28;20028;-66
2023/02/06 11:03:38;;;;;;;7.68;4.00;;;;;;;;;;5090786;28;20032;-66
2023/02/06 11:06:08;;;;;;;11.18;3.60;;;;;;;;;;5092411;28;20423;-66
2023/02/06 11:08:45;;;;;;;7.55;3.90;;;;;;;;;;5091620;28;20047;-66
2023/02/06 11:11:31;;;;;;;9.23;3.80;;;;;;;;;;5091471;28;20020;-66
2023/02/06 11:14:08;;;;;;;5.40;3.58;;;;;;;;;;5091538;28;20030;-66
2023/02/06 11:16:38;;;;;;;7.32;3.60;;;;;;;;;;5084932;28;20074;-67
2023/02/06 11:19:21;;;;;;;8.18;3.50;;;;;;;;;;5091208;28;20085;-66
2023/02/06 11:21:52;;;;;;;5.80;3.42;;;;;;;;;;5094050;28;20078;-68
2023/02/06 11:24:23;;;;;;;12.73;3.97;;;;;;;;;;5088215;28;20032;-66
2023/02/06 11:27:05;;;;;;;6.57;3.55;;;;;;;;;;5091231;28;20043;-66
2023/02/06 11:29:40;;;;;;;5.45;3.50;;;;;;;;;;5093573;28;20035;-66
2023/02/06 11:32:10;;;;;;;6.07;3.05;;;;;;;;;;5082439;28;20105;-66
2023/02/06 11:34:58;;;;;;;6.20;3.85;;;;;;;;;;5099503;28;20024;-66
2023/02/06 11:37:41;;;;;;;8.50;4.05;;;;;;;;;;5092351;28;20572;-66
2023/02/06 11:40:20;;;;;;;6.70;3.63;;;;;;;;;;5090938;28;20032;-66
2023/02/06 11:42:51;;;;;;;8.73;4.40;;;;;;;;;;5092124;28;20024;-66
2023/02/06 11:45:41;;;;;;;7.05;4.38;;;;;;;;;;5090802;28;20035;-66
2023/02/06 11:48:30;;;;;;;7.93;4.10;;;;;;;;;;5084943;28;20526;-66
2023/02/06 11:50:59;;;;;;;8.35;4.50;;;;;;;;;;5086161;28;20255;-66
2023/02/06 11:53:30;;;;;;;7.83;3.80;;;;;;;;;;5098487;28;20587;-66
2023/02/06 11:56:02;;;;;;;13.32;4.13;;;;;;;;;;5093463;28;20070;-66
2023/02/06 11:58:32;;;;;;;6.78;4.13;;;;;;;;;;5090647;28;20050;-66
2023/02/06 12:01:03;;;;;;;7.55;4.30;;;;;;;;;;5089138;28;20028;-66
2023/02/06 12:03:37;;;;;;;6.88;4.47;;;;;;;;;;5083209;28;20024;-66
2023/02/06 12:06:06;;;;;;;7.97;3.88;;;;;;;;;;5088876;28;20043;-66
2023/02/06 12:08:47;;;;;;;7.00;4.80;;;;;;;;;;5093448;28;20461;-66
2023/02/06 12:11:18;;;;;;;10.70;5.55;;;;;;;;;;5093444;28;20023;-66
2023/02/06 12:13:51;;;;;;;7.75;4.78;;;;;;;;;;5092698;28;20024;-66
2023/02/06 12:16:20;;;;;;;8.50;4.35;;;;;;;;;;5093843;28;20472;-65
2023/02/06 12:18:51;;;;;;;9.77;5.00;;;;;;;;;;5098452;28;20036;-66
2023/02/06 12:21:25;;;;;;;8.45;4.30;;;;;;;;;;5082285;28;20021;-66
2023/02/06 12:23:59;;;;;;;9.50;4.78;;;;;;;;;;5084120;28;20039;-65
2023/02/06 12:26:30;;;;;;;8.13;5.63;;;;;;;;;;5094738;28;20116;-66
2023/02/06 12:29:09;;;;;;;9.65;5.47;;;;;;;;;;5093633;28;20032;-66
2023/02/06 12:31:53;;;;;;;9.07;5.70;;;;;;;;;;5084608;28;20466;-66
2023/02/06 12:34:27;;;;;;;9.40;5.53;;;;;;;;;;5091859;28;20028;-72
2023/02/06 12:37:12;;;;;;;9.48;5.25;;;;;;;;;;5099815;28;20389;-71
2023/02/06 12:39:42;;;;;;;13.23;6.60;;;;;;;;;;5097933;28;20026;-69
2023/02/06 12:42:11;;;;;;;;;;;;;;;;;;5089905;28;20025;-72
2023/02/06 12:44:45;;;;;;;14.85;6.78;;;;;;;;;;5084307;28;19938;-71
2023/02/06 12:47:22;;;;;;;12.15;7.28;;;;;;;;;;5091931;28;20473;-72
2023/02/06 12:49:56;;;;;;;9.95;6.10;;;;;;;;;;5093040;28;20036;-71
2023/02/06 12:52:29;;;;;;;14.77;9.02;;;;;;;;;;5096611;28;20020;-71
2023/02/06 12:55:01;;;;;;;16.65;7.82;;;;;;;;;;5100424;28;20114;-72
2023/02/06 12:57:33;;;;;;;16.15;8.40;;;;;;;;;;5086104;28;20024;-71
2023/02/06 13:00:05;;;;;;;15.90;7.88;;;;;;;;;;5089498;28;20028;-70
2023/02/06 13:02:52;;;;;;;16.42;8.70;;;;;;;;;;5087169;28;20020;-72
2023/02/06 13:05:25;;;;;;;12.55;7.63;;;;;;;;;;5089103;28;20141;-72
2023/02/06 13:07:53;;;;;;;13.82;6.97;;;;;;;;;;5090800;28;20411;-72
2023/02/06 13:10:22;;;;;;;11.77;6.97;;;;;;;;;;5097464;28;20032;-71
2023/02/06 13:12:57;;;;;;;10.10;6.70;;;;;;;;;;5091353;28;20019;-72
2023/02/06 13:15:26;;;;;;;10.50;6.78;;;;;;;;;;5088147;28;20062;-72
2023/02/06 13:17:54;;;;;;;11.75;6.57;;;;;;;;;;5089979;28;20385;-72
2023/02/06 13:20:25;;;;;;;7.25;4.90;;;;;;;;;;5094731;28;20032;-71
2023/02/06 13:22:52;;;;;;;7.20;5.07;;;;;;;;;;5091525;28;20029;-71
2023/02/06 13:25:32;;;;;;;7.13;4.70;;;;;;;;;;5088350;28;20426;-71
2023/02/06 13:28:23;;;;;;;8.85;4.68;;;;;;;;;;5086116;28;20052;-70
2023/02/06 13:31:01;;;;;;;8.30;3.95;;;;;;;;;;5105609;28;20059;-70
2023/02/06 13:33:39;;;;;;;6.57;3.78;;;;;;;;;;5104101;28;20020;-71
2023/02/06 13:36:16;;;;;;;6.18;3.90;;;;;;;;;;5093462;28;20081;-72
2023/02/06 13:38:43;;;;;;;6.30;3.92;;;;;;;;;;5092974;28;20028;-71
2023/02/06 13:41:14;;;;;;;5.15;3.40;;;;;;;;;;5093080;28;20415;-71
2023/02/06 13:43:41;;;;;;;;;;;;;;;;;;5097656;28;20027;-71
2023/02/06 13:46:11;;;;;;;5.80;2.95;;;;;;;;;;5093116;28;19908;-72
2023/02/06 13:48:58;;;;;;;7.07;3.90;;;;;;;;;;5088216;28;20532;-72
2023/02/06 13:51:44;;;;;;;5.88;3.33;;;;;;;;;;5092644;28;20528;-70
2023/02/06 13:54:14;;;;;;;6.93;3.45;;;;;;;;;;5085379;28;20024;-71
2023/02/06 13:56:43;;;;;;;3.50;2.60;;;;;;;;;;5105463;28;20028;-70
2023/02/06 13:59:32;;;;;;;5.40;2.75;;;;;;;;;;5092329;28;20059;-72
2023/02/06 14:02:06;;;;;;;5.85;3.22;;;;;;;;;;5054069;28;20109;-70
2023/02/06 14:04:35;;;;;;;5.95;3.28;;;;;;;;;;5090755;28;20020;-71
2023/02/06 14:07:20;;;;;;;8.45;3.08;;;;;;;;;;5096470;28;20074;-70
2023/02/06 14:13:07;;;;;;;5.00;2.70;;;;;;;;;;5096962;28;20097;-70
2023/02/06 14:15:56;;;;;;;5.75;3.20;;;;;;;;;;5103606;28;20030;-70
2023/02/06 14:18:26;;;;;;;6.13;3.28;;;;;;;;;;5096797;28;20499;-69
2023/02/06 14:20:55;;;;;;;4.72;2.80;;;;;;;;;;5094908;28;20524;-70
2023/02/06 14:23:42;;;;;;;8.20;3.33;;;;;;;;;;5095753;28;20446;-70
2023/02/06 14:26:11;;;;;;;4.22;2.78;;;;;;;;;;5078995;27;20078;-72
2023/02/06 14:28:49;;;;;;;5.07;2.65;;;;;;;;;;5076936;28;20048;-71
2023/02/06 14:31:24;;;;;;;4.85;3.35;;;;;;;;;;5075632;28;20441;-71
2023/02/06 14:34:02;;;;;;;6.80;3.53;;;;;;;;;;5081588;28;20188;-71
2023/02/06 14:36:51;;;;;;;7.25;4.05;;;;;;;;;;5075275;28;20030;-71
2023/02/06 14:39:37;;;;;;;8.02;4.07;;;;;;;;;;5067554;28;20487;-71
2023/02/06 14:42:29;;;;;;;8.60;3.47;;;;;;;;;;5072362;28;20447;-71
2023/02/06 14:45:05;;;;;;;6.10;3.65;;;;;;;;;;5070011;28;20109;-72
2023/02/06 14:47:43;;;;;;;10.35;3.63;;;;;;;;;;5083939;28;20807;-71
2023/02/06 14:50:22;;;;;;;5.63;3.53;;;;;;;;;;5074851;28;20035;-72
2023/02/06 14:52:53;;;;;;;5.45;3.00;;;;;;;;;;5082075;28;20078;-71
2023/02/06 14:55:41;;;;;;;4.82;3.03;;;;;;;;;;5076036;28;20023;-71